Time;durP1;ratioP1;P1;durP2;ratioP2;P2;SDS_P1;SDS_P2;PMS_P1;PMS_P2;Temp;Humidity;BMP_temperature;BMP_pressure;BME280_temperature;BME280_humidity;BME280_pressure;Samples;Min_cycle;Max_cycle;Signal;HPM_P1;HPM_P2
2022/07/24 00:00:56;;;;;;;5.72;2.63;;;;;;;;;;7311744;19;155095;-16
2022/07/24 00:03:28;;;;;;;4.15;2.50;;;;;;;;;;7313405;19;154723;-16
2022/07/24 00:06:00;;;;;;;4.20;2.90;;;;;;;;;;7313046;19;162273;-16
2022/07/24 00:08:33;;;;;;;6.45;3.13;;;;;;;;;;7312935;19;162856;-16
2022/07/24 00:11:05;;;;;;;5.45;2.65;;;;;;;;;;7313243;19;154427;-16
2022/07/24 00:13:36;;;;;;;5.68;2.97;;;;;;;;;;7312568;19;153939;-20
2022/07/24 00:16:08;;;;;;;5.05;2.75;;;;;;;;;;7312871;19;162219;-16
2022/07/24 00:18:40;;;;;;;7.63;3.38;;;;;;;;;;7312615;19;162811;-16
2022/07/24 00:21:11;;;;;;;6.90;3.03;;;;;;;;;;7311254;19;155033;-16
2022/07/24 00:23:45;;;;;;;4.57;2.63;;;;;;;;;;7312936;19;154137;-17
2022/07/24 00:26:16;;;;;;;6.85;3.10;;;;;;;;;;7312622;19;162387;-16
2022/07/24 00:28:48;;;;;;;4.75;2.90;;;;;;;;;;7311857;19;163248;-16
2022/07/24 00:31:20;;;;;;;6.32;3.13;;;;;;;;;;7310077;19;154670;-17
2022/07/24 00:33:51;;;;;;;5.20;3.03;;;;;;;;;;7311993;19;153963;-17
2022/07/24 00:36:23;;;;;;;5.78;3.30;;;;;;;;;;7312138;19;162336;-17
2022/07/24 00:38:56;;;;;;;5.53;2.50;;;;;;;;;;7312058;19;163162;-20
2022/07/24 00:41:27;;;;;;;5.25;2.60;;;;;;;;;;7310055;19;154469;-16
2022/07/24 00:44:04;;;;;;;4.10;2.53;;;;;;;;;;7310675;19;154145;-16
2022/07/24 00:46:36;;;;;;;4.03;2.92;;;;;;;;;;7312048;19;163081;-16
2022/07/24 00:49:10;;;;;;;7.25;3.13;;;;;;;;;;7311648;19;162815;-16
2022/07/24 00:51:43;;;;;;;7.57;2.67;;;;;;;;;;7309655;19;154976;-16
2022/07/24 00:54:19;;;;;;;3.67;2.67;;;;;;;;;;7311779;19;154040;-17
2022/07/24 00:56:52;;;;;;;5.38;2.67;;;;;;;;;;7311273;19;162720;-17
2022/07/24 00:59:24;;;;;;;3.88;2.63;;;;;;;;;;7311147;19;163248;-17
2022/07/24 01:01:55;;;;;;;3.53;2.27;;;;;;;;;;7309842;19;155051;-16
2022/07/24 01:04:26;;;;;;;8.05;3.17;;;;;;;;;;7311413;19;153967;-16
2022/07/24 01:06:58;;;;;;;3.58;2.55;;;;;;;;;;7311193;19;162300;-16
2022/07/24 01:09:32;;;;;;;4.80;2.60;;;;;;;;;;7311031;19;163651;-17
2022/07/24 01:12:04;;;;;;;4.85;2.80;;;;;;;;;;7311335;19;154091;-21
2022/07/24 01:14:36;;;;;;;3.33;2.30;;;;;;;;;;7311123;19;154609;-23
2022/07/24 01:17:07;;;;;;;6.38;2.70;;;;;;;;;;7309140;19;162297;-17
2022/07/24 01:19:38;;;;;;;3.42;2.30;;;;;;;;;;7310662;19;163267;-17
2022/07/24 01:22:12;;;;;;;3.13;2.25;;;;;;;;;;7309197;19;154626;-16
2022/07/24 01:24:43;;;;;;;5.15;2.53;;;;;;;;;;7311277;19;154497;-16
2022/07/24 01:27:15;;;;;;;4.13;2.55;;;;;;;;;;7310795;19;162216;-16
2022/07/24 01:29:47;;;;;;;3.57;2.23;;;;;;;;;;7309091;19;162775;-16
2022/07/24 01:32:18;;;;;;;4.53;2.53;;;;;;;;;;7310804;19;154516;-17
2022/07/24 01:34:49;;;;;;;4.35;2.35;;;;;;;;;;7310839;19;154018;-17
2022/07/24 01:37:23;;;;;;;3.13;2.15;;;;;;;;;;7310271;19;162701;-16
2022/07/24 01:39:54;;;;;;;3.38;2.40;;;;;;;;;;7310311;19;163254;-16
2022/07/24 01:42:26;;;;;;;2.95;2.10;;;;;;;;;;7307206;19;154487;-16
2022/07/24 01:44:57;;;;;;;7.30;2.13;;;;;;;;;;7310401;19;154011;-17
2022/07/24 01:47:28;;;;;;;5.95;1.85;;;;;;;;;;7309739;19;162611;-16
2022/07/24 01:49:59;;;;;;;5.70;2.78;;;;;;;;;;7309957;19;162961;-17
2022/07/24 01:52:33;;;;;;;3.70;1.90;;;;;;;;;;7310557;19;154450;-16
2022/07/24 01:55:05;;;;;;;4.43;1.80;;;;;;;;;;7310350;19;154724;-16
2022/07/24 01:57:37;;;;;;;3.42;2.22;;;;;;;;;;7309901;19;162570;-16
2022/07/24 02:00:12;;;;;;;3.70;2.05;;;;;;;;;;7309572;19;163220;-16
2022/07/24 02:02:44;;;;;;;3.70;2.17;;;;;;;;;;7311944;19;154421;-16
2022/07/24 02:05:16;;;;;;;3.00;2.00;;;;;;;;;;7317316;19;153986;-16
2022/07/24 02:07:59;;;;;;;2.78;2.33;;;;;;;;;;7315984;19;162961;-16
2022/07/24 02:10:32;;;;;;;3.10;2.10;;;;;;;;;;7316506;19;162826;-16
2022/07/24 02:13:04;;;;;;;3.53;2.20;;;;;;;;;;7316472;19;154464;-16
2022/07/24 02:15:35;;;;;;;5.32;2.25;;;;;;;;;;7316733;19;154704;-17
2022/07/24 02:18:06;;;;;;;4.13;1.98;;;;;;;;;;7316096;19;162602;-17
2022/07/24 02:20:38;;;;;;;2.65;2.30;;;;;;;;;;7315953;19;163155;-17
2022/07/24 02:23:17;;;;;;;4.45;2.50;;;;;;;;;;7314446;19;155046;-16
2022/07/24 02:25:49;;;;;;;3.25;2.30;;;;;;;;;;7316106;19;154639;-16
2022/07/24 02:28:21;;;;;;;3.17;2.00;;;;;;;;;;7315843;19;162630;-16
2022/07/24 02:30:52;;;;;;;2.53;2.10;;;;;;;;;;7313439;19;163017;-16
2022/07/24 02:33:23;;;;;;;3.60;2.25;;;;;;;;;;7316007;19;154819;-16
2022/07/24 02:35:55;;;;;;;2.78;2.00;;;;;;;;;;7315674;19;154024;-16
2022/07/24 02:38:28;;;;;;;2.63;2.40;;;;;;;;;;7314108;19;162257;-16
2022/07/24 02:41:00;;;;;;;4.18;2.20;;;;;;;;;;7315445;19;162981;-16
2022/07/24 02:43:31;;;;;;;3.70;2.50;;;;;;;;;;7313632;19;154749;-16
2022/07/24 02:46:02;;;;;;;5.22;2.17;;;;;;;;;;7315548;19;154153;-16
2022/07/24 02:48:34;;;;;;;6.05;2.33;;;;;;;;;;7313362;19;162276;-16
2022/07/24 02:51:05;;;;;;;4.60;2.30;;;;;;;;;;7313666;19;163467;-17
2022/07/24 02:53:39;;;;;;;5.63;2.30;;;;;;;;;;7315519;19;154964;-16
2022/07/24 02:56:11;;;;;;;5.03;2.63;;;;;;;;;;7315278;19;154118;-16
2022/07/24 02:58:42;;;;;;;3.58;2.00;;;;;;;;;;7314849;19;162213;-17
2022/07/24 03:01:13;;;;;;;3.80;2.10;;;;;;;;;;7314866;19;162829;-16
2022/07/24 03:03:44;;;;;;;6.03;2.45;;;;;;;;;;7312898;19;154411;-17
2022/07/24 03:06:15;;;;;;;4.55;2.05;;;;;;;;;;7314991;19;153955;-16
2022/07/24 03:08:50;;;;;;;5.13;2.22;;;;;;;;;;7314692;19;162705;-16
2022/07/24 03:11:21;;;;;;;5.05;2.47;;;;;;;;;;7312956;19;162865;-16
2022/07/24 03:13:52;;;;;;;3.83;2.20;;;;;;;;;;7311604;19;154462;-16
2022/07/24 03:16:23;;;;;;;4.05;2.13;;;;;;;;;;7314950;19;153965;-17
2022/07/24 03:18:55;;;;;;;2.05;1.80;;;;;;;;;;7314550;19;162248;-16
2022/07/24 03:21:26;;;;;;;3.42;2.00;;;;;;;;;;7314417;19;162905;-16
2022/07/24 03:24:18;;;;;;;4.68;2.28;;;;;;;;;;7314736;19;155143;-16
2022/07/24 03:26:49;;;;;;;5.22;2.10;;;;;;;;;;7314365;19;154292;-16
2022/07/24 03:29:20;;;;;;;2.70;2.15;;;;;;;;;;7313317;19;162188;-16
2022/07/24 03:31:51;;;;;;;3.10;2.22;;;;;;;;;;7314174;19;162777;-18
2022/07/24 03:34:23;;;;;;;6.45;2.20;;;;;;;;;;7314408;19;154524;-16
2022/07/24 03:36:54;;;;;;;5.38;2.25;;;;;;;;;;7312891;19;154658;-16
2022/07/24 03:39:28;;;;;;;3.22;2.67;;;;;;;;;;7313949;19;162291;-16
2022/07/24 03:42:02;;;;;;;4.72;2.28;;;;;;;;;;7313885;19;163791;-16
2022/07/24 03:44:33;;;;;;;4.20;2.20;;;;;;;;;;7314295;19;154440;-16
2022/07/24 03:47:04;;;;;;;3.38;2.00;;;;;;;;;;7312821;19;153996;-16
2022/07/24 03:49:36;;;;;;;3.83;2.33;;;;;;;;;;7313569;19;162286;-17
2022/07/24 03:52:08;;;;;;;3.25;1.90;;;;;;;;;;7313503;19;162938;-16
2022/07/24 03:54:41;;;;;;;5.97;2.40;;;;;;;;;;7313931;19;154488;-16
2022/07/24 03:57:13;;;;;;;2.92;2.00;;;;;;;;;;7313895;19;153504;-17
2022/07/24 03:59:44;;;;;;;2.67;1.98;;;;;;;;;;7311863;19;162902;-19
2022/07/24 04:02:18;;;;;;;2.97;2.00;;;;;;;;;;7312925;19;162943;-16
2022/07/24 04:04:49;;;;;;;5.50;2.25;;;;;;;;;;7312009;19;154594;-16
2022/07/24 04:07:20;;;;;;;3.03;1.88;;;;;;;;;;7313026;19;154089;-17
2022/07/24 04:10:12;;;;;;;4.35;2.00;;;;;;;;;;7312564;19;162277;-21
2022/07/24 04:12:43;;;;;;;4.72;1.98;;;;;;;;;;7312714;19;163178;-17
2022/07/24 04:15:14;;;;;;;5.15;2.10;;;;;;;;;;7313016;19;154567;-16
2022/07/24 04:17:46;;;;;;;4.30;2.65;;;;;;;;;;7312785;19;153928;-16
2022/07/24 04:20:17;;;;;;;2.25;2.05;;;;;;;;;;7311443;19;162651;-15
2022/07/24 04:22:49;;;;;;;2.25;1.60;;;;;;;;;;7312549;19;163041;-16
2022/07/24 04:25:23;;;;;;;4.47;1.73;;;;;;;;;;7310261;19;155291;-16
2022/07/24 04:27:54;;;;;;;3.45;2.92;;;;;;;;;;7312711;19;154067;-16
2022/07/24 04:30:25;;;;;;;3.83;2.25;;;;;;;;;;7309806;19;161726;-16
2022/07/24 04:32:56;;;;;;;1.95;1.73;;;;;;;;;;7312089;19;162834;-16
2022/07/24 04:35:28;;;;;;;3.47;2.03;;;;;;;;;;7312286;19;155024;-16
2022/07/24 04:37:59;;;;;;;3.00;2.00;;;;;;;;;;7310929;19;154307;-16
2022/07/24 04:40:33;;;;;;;3.95;2.13;;;;;;;;;;7312054;19;162617;-16
2022/07/24 04:43:04;;;;;;;5.25;2.30;;;;;;;;;;7311257;19;163266;-16
2022/07/24 04:45:35;;;;;;;5.10;2.05;;;;;;;;;;7312184;19;154756;-16
2022/07/24 04:48:08;;;;;;;4.60;2.03;;;;;;;;;;7312261;19;153973;-16
2022/07/24 04:50:39;;;;;;;2.20;2.00;;;;;;;;;;7311939;19;162244;-16
2022/07/24 04:53:10;;;;;;;4.57;1.90;;;;;;;;;;7311633;19;163211;-16
2022/07/24 04:55:44;;;;;;;4.50;2.13;;;;;;;;;;7312178;19;154583;-16
2022/07/24 04:58:15;;;;;;;2.28;1.85;;;;;;;;;;7311851;19;153987;-16
2022/07/24 05:00:47;;;;;;;2.40;1.80;;;;;;;;;;7311149;19;162660;-15
2022/07/24 05:03:18;;;;;;;2.95;1.85;;;;;;;;;;7310676;19;163269;-16
2022/07/24 05:05:49;;;;;;;3.47;1.80;;;;;;;;;;7311567;19;154827;-16
2022/07/24 05:08:20;;;;;;;2.20;1.95;;;;;;;;;;7311493;19;154438;-16
2022/07/24 05:10:54;;;;;;;2.95;1.92;;;;;;;;;;7311343;19;162676;-15
2022/07/24 05:13:26;;;;;;;2.20;1.90;;;;;;;;;;7311212;19;163282;-15
2022/07/24 05:15:57;;;;;;;2.92;1.80;;;;;;;;;;7311352;19;154798;-16
2022/07/24 05:18:28;;;;;;;4.10;1.90;;;;;;;;;;7311551;19;154133;-16
2022/07/24 05:20:59;;;;;;;6.30;1.75;;;;;;;;;;7310851;19;162157;-16
2022/07/24 05:23:31;;;;;;;2.40;2.20;;;;;;;;;;7310104;19;163330;-16
2022/07/24 05:26:05;;;;;;;3.10;1.98;;;;;;;;;;7310763;19;155257;-16
2022/07/24 05:28:36;;;;;;;3.72;2.08;;;;;;;;;;7310775;19;153487;-16
2022/07/24 05:31:08;;;;;;;3.45;1.83;;;;;;;;;;7310262;19;162655;-16
2022/07/24 05:33:39;;;;;;;6.27;2.10;;;;;;;;;;7310419;19;162773;-16
2022/07/24 05:36:11;;;;;;;4.82;2.10;;;;;;;;;;7310541;19;154476;-16
2022/07/24 05:38:43;;;;;;;5.63;1.97;;;;;;;;;;7316955;19;154108;-15
2022/07/24 05:41:17;;;;;;;5.00;2.20;;;;;;;;;;7316831;19;162961;-16
2022/07/24 05:43:48;;;;;;;3.92;2.08;;;;;;;;;;7316873;19;163207;-16
2022/07/24 05:46:19;;;;;;;2.50;2.20;;;;;;;;;;7317434;19;154493;-16
2022/07/24 05:48:51;;;;;;;2.97;2.00;;;;;;;;;;7317293;19;153965;-16
2022/07/24 05:51:22;;;;;;;2.17;1.90;;;;;;;;;;7316741;19;162308;-16
2022/07/24 05:53:53;;;;;;;7.13;1.95;;;;;;;;;;7316616;19;162849;-16
2022/07/24 05:56:27;;;;;;;4.53;2.10;;;;;;;;;;7316998;19;154550;-16
2022/07/24 05:58:58;;;;;;;2.90;2.10;;;;;;;;;;7316773;19;154357;-16
2022/07/24 06:01:30;;;;;;;4.72;2.60;;;;;;;;;;7316626;19;162208;-16
2022/07/24 06:04:01;;;;;;;6.78;2.45;;;;;;;;;;7315762;19;162803;-16
2022/07/24 06:06:32;;;;;;;2.53;2.22;;;;;;;;;;7316924;19;155195;-16
2022/07/24 06:09:04;;;;;;;2.42;1.88;;;;;;;;;;7316596;19;153965;-16
2022/07/24 06:11:38;;;;;;;2.78;2.15;;;;;;;;;;7316042;19;162909;-16
2022/07/24 06:14:09;;;;;;;2.42;2.22;;;;;;;;;;7315975;19;162862;-16
2022/07/24 06:16:40;;;;;;;2.10;1.90;;;;;;;;;;7314394;19;155080;-16
2022/07/24 06:19:11;;;;;;;6.32;2.40;;;;;;;;;;7316030;19;154081;-15
2022/07/24 06:21:42;;;;;;;3.40;2.30;;;;;;;;;;7315670;19;162400;-16
2022/07/24 06:24:14;;;;;;;4.25;2.08;;;;;;;;;;7313419;19;163248;-15
2022/07/24 06:26:48;;;;;;;3.90;2.33;;;;;;;;;;7315970;19;154491;-15
2022/07/24 06:29:31;;;;;;;2.75;1.98;;;;;;;;;;7314849;19;154387;-16
2022/07/24 06:32:02;;;;;;;3.95;2.55;;;;;;;;;;7315345;19;162284;-15
2022/07/24 06:34:34;;;;;;;6.40;2.53;;;;;;;;;;7315075;19;162420;-16
2022/07/24 06:37:08;;;;;;;4.72;2.17;;;;;;;;;;7315599;19;154415;-15
2022/07/24 06:39:39;;;;;;;7.25;2.30;;;;;;;;;;7313889;19;154222;-16
2022/07/24 06:42:13;;;;;;;2.83;1.73;;;;;;;;;;7313396;19;162219;-16
2022/07/24 06:44:44;;;;;;;2.95;2.20;;;;;;;;;;7314651;19;163812;-16
2022/07/24 06:47:15;;;;;;;4.75;3.00;;;;;;;;;;7315208;19;155074;-16
2022/07/24 06:49:46;;;;;;;3.05;2.63;;;;;;;;;;7312764;19;153969;-16
2022/07/24 06:52:19;;;;;;;2.38;1.95;;;;;;;;;;7314906;19;163756;-16
2022/07/24 06:54:50;;;;;;;2.83;2.08;;;;;;;;;;7314937;19;163194;-16
2022/07/24 06:57:25;;;;;;;3.13;2.58;;;;;;;;;;7315004;19;154131;-16
2022/07/24 06:59:56;;;;;;;2.65;2.40;;;;;;;;;;7313727;19;153552;-16
2022/07/24 07:02:27;;;;;;;4.32;2.25;;;;;;;;;;7314458;19;162368;-18
2022/07/24 07:04:59;;;;;;;4.97;2.22;;;;;;;;;;7312178;19;162925;-16
2022/07/24 07:07:30;;;;;;;5.63;2.60;;;;;;;;;;7315329;19;154795;-16
2022/07/24 07:10:02;;;;;;;4.07;2.95;;;;;;;;;;7315051;19;153923;-16
2022/07/24 07:12:36;;;;;;;6.05;2.80;;;;;;;;;;7314357;19;162271;-15
2022/07/24 07:15:11;;;;;;;5.05;2.65;;;;;;;;;;7314028;19;163257;-15
2022/07/24 07:17:42;;;;;;;5.80;2.88;;;;;;;;;;7314736;19;154442;-15
2022/07/24 07:20:15;;;;;;;5.28;3.63;;;;;;;;;;7314488;19;154026;-16
2022/07/24 07:22:46;;;;;;;7.63;2.72;;;;;;;;;;7313852;19;162772;-15
2022/07/24 07:25:18;;;;;;;4.25;2.60;;;;;;;;;;7311924;19;162934;-15
2022/07/24 07:27:52;;;;;;;5.10;2.63;;;;;;;;;;7314386;19;154764;-15
2022/07/24 07:30:23;;;;;;;6.45;2.35;;;;;;;;;;7312410;19;153976;-15
2022/07/24 07:32:54;;;;;;;5.20;3.20;;;;;;;;;;7312338;19;162603;-16
2022/07/24 07:35:25;;;;;;;5.25;2.80;;;;;;;;;;7313872;19;162835;-15
2022/07/24 07:37:56;;;;;;;6.63;4.20;;;;;;;;;;7314017;19;154498;-15
2022/07/24 07:40:28;;;;;;;5.70;3.47;;;;;;;;;;7314009;19;153994;-16
2022/07/24 07:43:02;;;;;;;9.98;3.85;;;;;;;;;;7313833;19;162245;-15
2022/07/24 07:45:33;;;;;;;7.72;3.92;;;;;;;;;;7312812;19;162785;-15
2022/07/24 07:48:04;;;;;;;5.90;3.85;;;;;;;;;;7312990;19;154436;-15
2022/07/24 07:50:36;;;;;;;8.05;4.10;;;;;;;;;;7313712;19;154209;-15
2022/07/24 07:53:08;;;;;;;11.18;4.38;;;;;;;;;;7313462;19;162832;-15
2022/07/24 07:55:39;;;;;;;10.25;4.40;;;;;;;;;;7313415;19;163429;-16
2022/07/24 07:58:13;;;;;;;9.23;3.90;;;;;;;;;;7313506;19;155092;-16
2022/07/24 08:00:44;;;;;;;11.27;4.57;;;;;;;;;;7312628;19;154074;-16
2022/07/24 08:03:15;;;;;;;8.55;4.93;;;;;;;;;;7312947;19;162337;-16
2022/07/24 08:05:47;;;;;;;13.20;5.63;;;;;;;;;;7312083;19;163222;-16
2022/07/24 08:08:18;;;;;;;12.85;5.63;;;;;;;;;;7313526;19;154630;-16
2022/07/24 08:10:49;;;;;;;10.65;6.35;;;;;;;;;;7313100;19;154352;-16
2022/07/24 08:13:23;;;;;;;14.20;6.20;;;;;;;;;;7313277;19;162220;-16
2022/07/24 08:15:54;;;;;;;12.63;6.07;;;;;;;;;;7312469;19;163283;-16
2022/07/24 08:18:25;;;;;;;10.02;5.90;;;;;;;;;;7313262;19;154549;-16
2022/07/24 08:20:57;;;;;;;11.18;5.47;;;;;;;;;;7312605;19;154369;-16
2022/07/24 08:23:28;;;;;;;12.85;5.78;;;;;;;;;;7312568;19;162298;-16
2022/07/24 08:25:59;;;;;;;11.85;6.15;;;;;;;;;;7311633;19;162942;-16
2022/07/24 08:28:34;;;;;;;9.02;5.95;;;;;;;;;;7312634;19;154474;-16
2022/07/24 08:31:05;;;;;;;10.85;6.57;;;;;;;;;;7309927;19;154905;-16
2022/07/24 08:33:39;;;;;;;12.90;6.50;;;;;;;;;;7310717;19;133314;-16
2022/07/24 08:36:11;;;;;;;15.90;6.40;;;;;;;;;;7311889;19;162873;-16
2022/07/24 08:38:42;;;;;;;27.43;7.57;;;;;;;;;;7312132;19;155081;-16
2022/07/24 08:41:15;;;;;;;17.25;8.45;;;;;;;;;;7312511;19;154033;-16
2022/07/24 08:43:49;;;;;;;14.77;7.70;;;;;;;;;;7311952;19;162599;-16
2022/07/24 08:46:20;;;;;;;16.55;7.13;;;;;;;;;;7310844;19;163102;-16
2022/07/24 08:48:51;;;;;;;19.33;7.60;;;;;;;;;;7311871;19;154976;-16
2022/07/24 08:51:24;;;;;;;15.00;7.07;;;;;;;;;;7310321;19;154087;-15
2022/07/24 08:53:55;;;;;;;16.95;6.63;;;;;;;;;;7310754;19;162215;-16
2022/07/24 08:56:26;;;;;;;15.48;6.93;;;;;;;;;;7308803;19;162984;-15
2022/07/24 08:59:00;;;;;;;12.52;6.10;;;;;;;;;;7311785;19;154618;-16
2022/07/24 09:01:31;;;;;;;12.55;6.30;;;;;;;;;;7311367;19;154050;-16
2022/07/24 09:04:03;;;;;;;13.70;5.90;;;;;;;;;;7310893;19;162363;-15
2022/07/24 09:06:34;;;;;;;17.30;5.90;;;;;;;;;;7310045;19;162776;-16
2022/07/24 09:09:06;;;;;;;9.63;5.72;;;;;;;;;;7311261;19;154793;-16
2022/07/24 09:11:39;;;;;;;14.18;6.03;;;;;;;;;;7311451;19;154481;-16
2022/07/24 09:17:04;;;;;;;13.50;5.97;;;;;;;;;;7317457;19;163119;-16
2022/07/24 09:19:49;;;;;;;9.95;5.47;;;;;;;;;;7316463;19;154447;-15
2022/07/24 09:22:33;;;;;;;10.00;5.53;;;;;;;;;;7317503;19;154553;-16
2022/07/24 09:25:13;;;;;;;10.90;5.07;;;;;;;;;;7317740;19;162899;-15
2022/07/24 09:27:50;;;;;;;10.57;4.65;;;;;;;;;;7315458;19;163396;-16
2022/07/24 09:30:31;;;;;;;9.68;4.82;;;;;;;;;;7314410;19;154564;-17
2022/07/24 09:33:04;;;;;;;8.93;4.85;;;;;;;;;;7317754;19;154433;-17
2022/07/24 09:35:39;;;;;;;11.00;5.00;;;;;;;;;;7317246;19;162264;-17
2022/07/24 09:38:12;;;;;;;9.98;4.50;;;;;;;;;;7317106;19;162809;-17
2022/07/24 09:40:46;;;;;;;12.20;4.97;;;;;;;;;;7317439;19;154522;-16
2022/07/24 09:43:19;;;;;;;11.43;5.50;;;;;;;;;;7317281;19;154101;-16
2022/07/24 09:46:05;;;;;;;9.63;4.95;;;;;;;;;;7316592;19;161691;-17
2022/07/24 09:48:38;;;;;;;11.93;5.30;;;;;;;;;;7314342;19;162878;-17
2022/07/24 09:51:15;;;;;;;13.13;4.75;;;;;;;;;;7315470;19;154580;-17
2022/07/24 09:53:48;;;;;;;9.32;4.95;;;;;;;;;;7316891;19;154070;-17
2022/07/24 09:56:20;;;;;;;6.28;4.53;;;;;;;;;;7316910;19;162193;-17
2022/07/24 09:58:54;;;;;;;7.88;4.65;;;;;;;;;;7316188;19;163484;-18
2022/07/24 10:01:29;;;;;;;8.75;4.18;;;;;;;;;;7315200;19;154847;-14
2022/07/24 10:04:01;;;;;;;8.48;4.32;;;;;;;;;;7315704;19;154116;-14
2022/07/24 10:06:33;;;;;;;7.90;5.43;;;;;;;;;;7316025;19;162246;-14
2022/07/24 10:09:05;;;;;;;13.43;4.80;;;;;;;;;;7315821;19;162735;-14
2022/07/24 10:11:38;;;;;;;11.10;4.90;;;;;;;;;;7316529;19;154659;-14
2022/07/24 10:14:09;;;;;;;12.35;5.38;;;;;;;;;;7316211;19;154586;-16
2022/07/24 10:16:45;;;;;;;8.70;5.10;;;;;;;;;;7315969;19;162238;-17
2022/07/24 10:19:18;;;;;;;9.02;4.75;;;;;;;;;;7315931;19;162767;-17
2022/07/24 10:21:56;;;;;;;9.65;4.60;;;;;;;;;;7316030;19;154795;-16
2022/07/24 10:24:55;;;;;;;9.20;4.43;;;;;;;;;;7315806;19;154279;-17
2022/07/24 10:27:29;;;;;;;7.70;4.38;;;;;;;;;;7313243;19;162761;-16
2022/07/24 10:30:02;;;;;;;9.27;4.57;;;;;;;;;;7314017;19;163190;-16
2022/07/24 10:32:39;;;;;;;9.88;4.97;;;;;;;;;;7316060;19;154759;-16
2022/07/24 10:35:16;;;;;;;7.60;4.53;;;;;;;;;;7315789;19;153933;-16
2022/07/24 10:37:58;;;;;;;8.07;4.10;;;;;;;;;;7315334;19;163433;-16
2022/07/24 10:40:39;;;;;;;6.85;4.10;;;;;;;;;;7314843;19;162776;-16
2022/07/24 10:43:20;;;;;;;11.23;4.57;;;;;;;;;;7313828;19;154620;-16
2022/07/24 10:46:16;;;;;;;7.65;3.60;;;;;;;;;;7313526;19;153979;-15
2022/07/24 10:48:49;;;;;;;6.75;4.00;;;;;;;;;;7313043;19;162700;-16
2022/07/24 10:51:24;;;;;;;8.30;3.55;;;;;;;;;;7314962;19;163247;-16
2022/07/24 10:53:57;;;;;;;8.52;4.00;;;;;;;;;;7314873;19;154781;-16
2022/07/24 10:56:30;;;;;;;7.95;3.95;;;;;;;;;;7314963;19;154596;-16
2022/07/24 10:59:07;;;;;;;6.82;4.18;;;;;;;;;;7314926;19;162769;-16
2022/07/24 11:01:42;;;;;;;7.25;4.15;;;;;;;;;;7314678;19;163489;-16
2022/07/24 11:04:34;;;;;;;10.02;4.13;;;;;;;;;;7314869;19;154548;-16
2022/07/24 11:07:13;;;;;;;8.88;3.70;;;;;;;;;;7314681;19;153482;-16
2022/07/24 11:09:58;;;;;;;7.90;3.83;;;;;;;;;;7314421;19;162683;-16
2022/07/24 11:12:31;;;;;;;5.68;3.38;;;;;;;;;;7314282;19;162806;-16
2022/07/24 11:17:50;;;;;;;7.22;4.13;;;;;;;;;;7314680;19;153986;-16
2022/07/24 11:20:25;;;;;;;6.82;3.60;;;;;;;;;;7312577;19;162698;-16
2022/07/24 11:22:57;;;;;;;9.80;4.53;;;;;;;;;;7314008;19;163359;-16
2022/07/24 11:25:30;;;;;;;;;;;;;;;;;;7314725;19;155316;-16
2022/07/24 11:28:15;;;;;;;9.52;3.85;;;;;;;;;;7313596;19;153816;-16
2022/07/24 11:30:48;;;;;;;6.60;3.50;;;;;;;;;;7311503;19;162187;-16
2022/07/24 11:33:24;;;;;;;7.60;3.67;;;;;;;;;;7313876;19;162827;-16
2022/07/24 11:35:58;;;;;;;10.07;4.20;;;;;;;;;;7311629;19;154989;-16
2022/07/24 11:38:31;;;;;;;7.57;4.28;;;;;;;;;;7313977;19;153916;-17
2022/07/24 11:41:08;;;;;;;6.53;3.58;;;;;;;;;;7313885;19;162238;-16
2022/07/24 11:43:52;;;;;;;9.93;4.65;;;;;;;;;;7312332;19;162852;-16
2022/07/24 11:46:36;;;;;;;7.95;4.43;;;;;;;;;;7312368;19;154521;-16
2022/07/24 11:49:09;;;;;;;6.20;4.30;;;;;;;;;;7312250;19;154533;-16
2022/07/24 11:51:47;;;;;;;6.28;4.15;;;;;;;;;;7311716;19;162260;-17
2022/07/24 11:54:24;;;;;;;8.88;4.57;;;;;;;;;;7313111;19;162833;-16
2022/07/24 11:56:57;;;;;;;8.65;4.10;;;;;;;;;;7313868;19;154483;-16
2022/07/24 11:59:30;;;;;;;7.85;4.32;;;;;;;;;;7313458;19;154123;-28
2022/07/24 12:02:06;;;;;;;7.93;4.45;;;;;;;;;;7313245;19;162668;-16
2022/07/24 12:04:38;;;;;;;7.07;4.45;;;;;;;;;;7312889;19;162801;-16
2022/07/24 12:07:13;;;;;;;7.50;4.00;;;;;;;;;;7313271;19;154515;-16
2022/07/24 12:09:49;;;;;;;7.25;4.15;;;;;;;;;;7310809;19;153959;-16
2022/07/24 12:12:22;;;;;;;6.57;4.10;;;;;;;;;;7312939;19;162668;-16
2022/07/24 12:14:55;;;;;;;8.25;4.38;;;;;;;;;;7312850;19;163249;-17
2022/07/24 12:17:26;;;;;;;5.22;4.03;;;;;;;;;;7313300;19;154505;-16
2022/07/24 12:20:02;;;;;;;8.27;3.78;;;;;;;;;;7312856;19;154078;-16
2022/07/24 12:22:36;;;;;;;8.23;4.13;;;;;;;;;;7312276;19;162640;-16
2022/07/24 12:25:08;;;;;;;9.13;4.30;;;;;;;;;;7310590;19;163425;-16
2022/07/24 12:27:44;;;;;;;7.55;4.03;;;;;;;;;;7313054;19;154573;-16
2022/07/24 12:30:24;;;;;;;7.30;4.22;;;;;;;;;;7309808;19;154091;-16
2022/07/24 12:33:00;;;;;;;6.13;4.13;;;;;;;;;;7312303;19;162278;-16
2022/07/24 12:35:33;;;;;;;6.32;4.45;;;;;;;;;;7311994;19;162466;-16
2022/07/24 12:38:07;;;;;;;9.23;4.18;;;;;;;;;;7310783;19;154504;-17
2022/07/24 12:40:39;;;;;;;7.10;4.18;;;;;;;;;;7312299;19;154146;-17
2022/07/24 12:43:12;;;;;;;5.57;3.67;;;;;;;;;;7312339;19;162237;-17
2022/07/24 12:45:44;;;;;;;7.47;4.10;;;;;;;;;;7311412;19;163280;-16
2022/07/24 12:48:22;;;;;;;4.47;4.00;;;;;;;;;;7310222;19;154447;-17
2022/07/24 12:51:06;;;;;;;13.35;4.85;;;;;;;;;;7312118;19;154006;-26
2022/07/24 12:53:42;;;;;;;8.50;4.10;;;;;;;;;;7311891;19;162321;-17
2022/07/24 12:56:16;;;;;;;6.20;4.43;;;;;;;;;;7311717;19;162754;-16
2022/07/24 12:58:57;;;;;;;6.15;4.43;;;;;;;;;;7311724;19;154589;-16
2022/07/24 13:01:31;;;;;;;10.23;4.15;;;;;;;;;;7311766;19;154085;-17
2022/07/24 13:04:03;;;;;;;8.25;4.43;;;;;;;;;;7311089;19;162750;-17
2022/07/24 13:06:38;;;;;;;;;;;;;;;;;;7311770;19;162842;-16
2022/07/24 13:09:15;;;;;;;8.80;4.30;;;;;;;;;;7310910;19;155301;-16
2022/07/24 13:11:48;;;;;;;9.68;4.38;;;;;;;;;;7311361;19;153868;-16
2022/07/24 13:14:21;;;;;;;12.38;4.05;;;;;;;;;;7310702;19;162192;-17
2022/07/24 13:16:54;;;;;;;6.50;3.70;;;;;;;;;;7311190;19;162826;-16
2022/07/24 13:19:25;;;;;;;;;;;;;;;;;;7311937;19;154501;-16
2022/07/24 13:21:56;;;;;;;6.90;4.28;;;;;;;;;;7311227;19;153760;-16
2022/07/24 13:24:30;;;;;;;8.93;4.10;;;;;;;;;;7310914;19;162757;-17
2022/07/24 13:27:02;;;;;;;5.85;4.45;;;;;;;;;;7310684;19;163466;-17
2022/07/24 13:29:34;;;;;;;8.90;4.82;;;;;;;;;;7309424;19;154395;-17
2022/07/24 13:32:06;;;;;;;6.85;4.70;;;;;;;;;;7310816;19;154032;-16
2022/07/24 13:34:37;;;;;;;10.73;4.80;;;;;;;;;;7310374;19;162700;-16
2022/07/24 13:37:09;;;;;;;9.25;4.22;;;;;;;;;;7310485;19;162853;-17
2022/07/24 13:39:43;;;;;;;6.85;4.18;;;;;;;;;;7310814;19;154498;-16
2022/07/24 13:42:14;;;;;;;8.10;4.13;;;;;;;;;;7308698;19;154024;-17
2022/07/24 13:44:45;;;;;;;9.15;4.80;;;;;;;;;;7309880;19;162234;-17
2022/07/24 13:47:16;;;;;;;6.85;4.28;;;;;;;;;;7309836;19;162896;-17
2022/07/24 13:49:48;;;;;;;10.95;4.40;;;;;;;;;;7307909;19;154819;-16
2022/07/24 13:52:19;;;;;;;8.15;5.20;;;;;;;;;;7309852;19;153586;-16
2022/07/24 13:54:53;;;;;;;8.73;5.15;;;;;;;;;;7309600;19;162720;-17
2022/07/24 13:57:26;;;;;;;8.90;5.18;;;;;;;;;;7309402;19;163276;-17
2022/07/24 13:59:57;;;;;;;11.07;4.65;;;;;;;;;;7316835;19;154533;-16
2022/07/24 14:02:28;;;;;;;7.53;5.18;;;;;;;;;;7316832;19;154511;-16
2022/07/24 14:04:59;;;;;;;11.00;4.55;;;;;;;;;;7316444;19;161864;-16
2022/07/24 14:07:30;;;;;;;6.75;4.70;;;;;;;;;;7316281;19;163256;-16
2022/07/24 14:10:05;;;;;;;6.15;4.47;;;;;;;;;;7315935;19;154438;-17
2022/07/24 14:12:36;;;;;;;6.75;5.18;;;;;;;;;;7315264;19;153955;-16
2022/07/24 14:15:08;;;;;;;7.40;4.97;;;;;;;;;;7315716;19;162301;-16
2022/07/24 14:17:39;;;;;;;7.90;5.47;;;;;;;;;;7316117;19;162826;-16
2022/07/24 14:20:11;;;;;;;13.38;5.97;;;;;;;;;;7316186;19;154431;-16
2022/07/24 14:22:44;;;;;;;10.88;5.85;;;;;;;;;;7316232;19;153959;-16
2022/07/24 14:25:18;;;;;;;9.55;5.80;;;;;;;;;;7316099;19;162488;-17
2022/07/24 14:27:49;;;;;;;9.68;5.93;;;;;;;;;;7314583;19;163410;-15
2022/07/24 14:30:21;;;;;;;10.75;5.93;;;;;;;;;;7314573;19;154443;-17
2022/07/24 14:32:52;;;;;;;9.60;7.28;;;;;;;;;;7316036;19;153944;-16
2022/07/24 14:35:24;;;;;;;10.55;7.97;;;;;;;;;;7315530;19;162799;-17
2022/07/24 14:37:55;;;;;;;10.13;6.78;;;;;;;;;;7315565;19;163227;-17
2022/07/24 14:40:29;;;;;;;13.35;8.07;;;;;;;;;;7316128;19;153984;-17
2022/07/24 14:43:00;;;;;;;9.90;8.40;;;;;;;;;;7315686;19;154071;-16
2022/07/24 14:45:31;;;;;;;12.57;7.78;;;;;;;;;;7315509;19;163078;-15
2022/07/24 14:48:02;;;;;;;13.77;8.23;;;;;;;;;;7315008;19;162740;-15
2022/07/24 14:50:34;;;;;;;14.88;7.53;;;;;;;;;;7312856;19;155068;-15
2022/07/24 14:53:05;;;;;;;11.63;8.68;;;;;;;;;;7315229;19;153947;-17
2022/07/24 14:55:39;;;;;;;11.50;7.72;;;;;;;;;;7313150;19;162283;-16
2022/07/24 14:58:10;;;;;;;11.40;7.30;;;;;;;;;;7315237;19;162943;-15
2022/07/24 15:00:41;;;;;;;13.05;7.55;;;;;;;;;;7315133;19;154481;-15
2022/07/24 15:03:12;;;;;;;14.43;7.40;;;;;;;;;;7315113;19;154687;-17
2022/07/24 15:05:44;;;;;;;15.15;7.85;;;;;;;;;;7314785;19;162805;-17
2022/07/24 15:08:15;;;;;;;9.68;7.78;;;;;;;;;;7314609;19;163190;-16